createdAt,value
2017-10-24T00:00:33.823Z,19.33
2017-10-24T00:03:00.566Z,20.95
2017-10-24T00:05:27.277Z,19.27
2017-10-24T00:07:53.240Z,20.50
2017-10-24T00:10:19.237Z,19.70
2017-10-24T00:12:45.930Z,19.73
2017-10-24T00:15:11.904Z,20.25
2017-10-24T00:17:38.926Z,20.40
2017-10-24T00:20:04.903Z,21.02
2017-10-24T00:22:30.881Z,20.03
2017-10-24T00:24:57.634Z,20.55
2017-10-24T00:27:23.593Z,19.70
2017-10-24T00:29:49.564Z,19.60
2017-10-24T00:32:16.310Z,19.62
2017-10-24T00:34:42.266Z,21.80
2017-10-24T00:37:08.629Z,21.98
2017-10-24T00:39:34.616Z,21.08
2017-10-24T00:42:00.576Z,20.80
2017-10-24T00:44:27.501Z,20.48
2017-10-24T00:46:54.236Z,20.17
2017-10-24T00:49:20.202Z,21.95
2017-10-24T00:51:46.187Z,20.37
2017-10-24T00:54:12.174Z,20.50
2017-10-24T00:56:38.165Z,20.10
2017-10-24T00:59:04.206Z,20.08
2017-10-24T01:01:30.169Z,21.23
2017-10-24T01:03:56.434Z,20.30
2017-10-24T01:06:22.433Z,20.92
2017-10-24T01:08:49.163Z,20.40
2017-10-24T01:11:16.340Z,20.60
2017-10-24T01:13:42.350Z,21.10
2017-10-24T01:16:09.057Z,20.90
2017-10-24T01:18:35.045Z,19.90
2017-10-24T01:21:01.054Z,20.50
2017-10-24T01:23:27.001Z,21.90
2017-10-24T01:25:52.962Z,21.75
2017-10-24T01:28:19.669Z,21.83
2017-10-24T01:30:45.636Z,20.73
2017-10-24T01:33:11.933Z,21.45
2017-10-24T01:35:37.910Z,21.25
2017-10-24T01:38:03.893Z,21.37
2017-10-24T01:40:30.901Z,20.88
2017-10-24T01:42:56.869Z,21.03
2017-10-24T01:45:22.842Z,21.20
2017-10-24T01:47:48.854Z,20.00
2017-10-24T01:50:14.818Z,19.73
2017-10-24T01:52:41.540Z,21.25
2017-10-24T01:55:08.650Z,20.77
2017-10-24T01:57:34.601Z,20.40
2017-10-24T02:00:00.755Z,19.65
2017-10-24T02:02:26.741Z,20.23
2017-10-24T02:04:53.458Z,20.85
2017-10-24T02:07:19.446Z,21.63
2017-10-24T02:09:45.787Z,21.08
2017-10-24T02:12:11.762Z,21.23
2017-10-24T02:14:38.834Z,21.33
2017-10-24T02:17:04.822Z,22.52
2017-10-24T02:19:31.523Z,21.27
2017-10-24T02:21:57.482Z,22.27
2017-10-24T02:24:24.229Z,21.52
2017-10-24T02:26:50.941Z,22.65
2017-10-24T02:29:17.082Z,23.35
2017-10-24T02:31:43.817Z,23.10
2017-10-24T02:34:10.538Z,23.50
2017-10-24T02:36:36.506Z,23.53
2017-10-24T02:39:02.693Z,23.23
2017-10-24T02:41:28.649Z,23.52
2017-10-24T02:43:54.621Z,22.80
2017-10-24T02:46:20.594Z,22.50
2017-10-24T02:48:46.561Z,23.38
2017-10-24T02:51:12.521Z,25.17
2017-10-24T02:53:38.489Z,23.08
2017-10-24T02:56:04.470Z,24.40
2017-10-24T02:58:30.509Z,23.90
2017-10-24T03:00:56.475Z,23.65
2017-10-24T03:03:22.424Z,23.77
2017-10-24T03:05:48.658Z,23.25
2017-10-24T03:08:15.189Z,23.52
2017-10-24T03:10:41.156Z,22.45
2017-10-24T03:13:07.136Z,23.42
2017-10-24T03:15:40.169Z,25.20
2017-10-24T03:18:06.125Z,23.77
2017-10-24T03:20:32.874Z,24.77
2017-10-24T03:22:58.838Z,24.15
2017-10-24T03:25:24.797Z,23.95
2017-10-24T03:27:51.533Z,23.45
2017-10-24T03:30:18.241Z,24.20
2017-10-24T03:32:44.218Z,23.30
2017-10-24T03:35:10.205Z,25.00
2017-10-24T03:37:37.901Z,23.60
2017-10-24T03:40:03.874Z,24.83
2017-10-24T03:42:29.870Z,22.60
2017-10-24T03:44:55.833Z,22.30
2017-10-24T03:47:22.530Z,23.62
2017-10-24T03:49:48.514Z,24.05
2017-10-24T03:52:14.470Z,22.83
2017-10-24T03:54:40.431Z,22.00
2017-10-24T03:57:07.158Z,23.07
2017-10-24T03:59:33.850Z,23.17
2017-10-24T04:01:59.817Z,23.25
2017-10-24T04:04:26.570Z,22.50
2017-10-24T04:06:53.274Z,21.55
2017-10-24T04:09:19.616Z,21.92
2017-10-24T04:11:45.610Z,23.10
2017-10-24T04:14:11.582Z,21.00
2017-10-24T04:16:37.775Z,22.60
2017-10-24T04:19:03.732Z,22.15
2017-10-24T04:21:29.707Z,21.50
2017-10-24T04:23:55.949Z,21.40
2017-10-24T04:26:21.909Z,22.43
2017-10-24T04:28:47.889Z,23.98
2017-10-24T04:31:14.136Z,23.90
2017-10-24T04:33:40.849Z,22.87
2017-10-24T04:36:06.798Z,22.98
2017-10-24T04:38:32.786Z,23.80
2017-10-24T04:40:58.746Z,22.90
2017-10-24T04:43:24.714Z,24.20
2017-10-24T04:45:50.677Z,24.40
2017-10-24T04:48:16.628Z,24.40
2017-10-24T04:50:42.607Z,24.37
2017-10-24T04:53:09.315Z,25.80
2017-10-24T04:55:35.275Z,25.00
2017-10-24T04:58:01.285Z,25.88
2017-10-24T05:00:27.978Z,25.43
2017-10-24T05:02:53.950Z,26.62
2017-10-24T05:05:19.933Z,27.83
2017-10-24T05:07:46.327Z,26.35
2017-10-24T05:10:12.289Z,26.92
2017-10-24T05:12:38.283Z,27.85
2017-10-24T05:15:04.271Z,27.92
2017-10-24T05:17:30.237Z,27.05
2017-10-24T05:19:56.218Z,26.67
2017-10-24T05:22:22.194Z,27.08
2017-10-24T05:24:48.162Z,27.48
2017-10-24T05:27:14.122Z,26.13
2017-10-24T05:29:40.366Z,26.60
2017-10-24T05:32:07.072Z,26.92
2017-10-24T05:34:33.054Z,23.85
2017-10-24T05:36:59.303Z,23.30
2017-10-24T05:39:25.305Z,23.75
2017-10-24T05:41:51.286Z,24.33
2017-10-24T05:44:17.629Z,24.00
2017-10-24T05:46:44.349Z,23.07
2017-10-24T05:49:10.307Z,23.00
2017-10-24T05:51:36.481Z,22.95
2017-10-24T05:54:02.459Z,22.52
2017-10-24T05:56:28.413Z,21.93
2017-10-24T05:58:54.405Z,22.10
2017-10-24T06:01:20.365Z,22.60
2017-10-24T06:03:46.317Z,22.35
2017-10-24T06:06:13.021Z,22.23
2017-10-24T06:08:38.999Z,22.37
2017-10-24T06:11:05.183Z,21.83
2017-10-24T06:13:31.907Z,22.73
2017-10-24T06:15:57.867Z,23.42
2017-10-24T06:18:24.010Z,22.10
2017-10-24T06:20:49.991Z,22.97
2017-10-24T06:23:16.704Z,23.15
2017-10-24T06:25:43.057Z,22.10
2017-10-24T06:28:09.777Z,22.05
2017-10-24T06:30:35.735Z,22.00
2017-10-24T06:33:01.726Z,21.27
2017-10-24T06:35:27.684Z,23.30
2017-10-24T06:37:53.664Z,23.60
2017-10-24T06:40:19.643Z,23.33
2017-10-24T06:42:45.613Z,23.40
2017-10-24T06:45:12.342Z,23.05
2017-10-24T06:47:38.315Z,23.85
2017-10-24T06:50:04.279Z,24.00
2017-10-24T06:52:30.254Z,23.77
2017-10-24T06:54:56.426Z,24.53
2017-10-24T06:57:22.386Z,24.87
2017-10-24T06:59:48.377Z,26.15
2017-10-24T07:02:15.094Z,27.62
2017-10-24T07:04:41.062Z,27.63
2017-10-24T07:07:07.169Z,27.05
2017-10-24T07:09:33.873Z,28.70
2017-10-24T07:11:59.862Z,27.02
2017-10-24T07:14:25.863Z,28.50
2017-10-24T07:16:51.991Z,27.80
2017-10-24T07:19:17.953Z,27.55
2017-10-24T07:21:43.917Z,27.10
2017-10-24T07:24:09.918Z,28.48
2017-10-24T07:26:36.637Z,26.75
2017-10-24T07:29:02.597Z,25.90
2017-10-24T07:31:28.849Z,25.50
2017-10-24T07:33:54.814Z,26.58
2017-10-24T07:36:20.781Z,25.80
2017-10-24T07:38:46.781Z,25.77
2017-10-24T07:41:13.498Z,25.40
2017-10-24T07:43:39.469Z,22.95
2017-10-24T07:46:05.481Z,23.70
2017-10-24T07:48:31.445Z,22.35
2017-10-24T07:50:57.410Z,22.17
2017-10-24T07:53:23.394Z,21.20
2017-10-24T07:55:49.368Z,21.37
2017-10-24T07:58:15.538Z,19.37
2017-10-24T08:00:41.505Z,19.37
2017-10-24T08:03:07.486Z,19.90
2017-10-24T08:05:34.541Z,19.62
2017-10-24T08:08:01.259Z,18.95
2017-10-24T08:10:27.221Z,18.40
2017-10-24T08:12:53.604Z,18.00
2017-10-24T08:15:19.578Z,17.85
2017-10-24T08:17:45.538Z,17.42
2017-10-24T08:20:11.531Z,17.30
2017-10-24T08:22:37.492Z,17.48
2017-10-24T08:25:03.459Z,16.50
2017-10-24T08:27:29.445Z,17.00
2017-10-24T08:29:56.161Z,17.67
2017-10-24T08:32:22.127Z,16.80
2017-10-24T08:34:48.138Z,17.55
2017-10-24T08:37:14.089Z,18.37
2017-10-24T08:39:40.054Z,19.23
2017-10-24T08:42:06.120Z,18.33
2017-10-24T08:44:32.173Z,19.67
2017-10-24T08:46:58.142Z,19.02
2017-10-24T08:49:24.345Z,20.37
2017-10-24T08:51:50.297Z,19.80
2017-10-24T08:54:16.250Z,20.00
2017-10-24T08:56:42.274Z,20.88
2017-10-24T08:59:08.254Z,21.15
2017-10-24T09:01:34.243Z,22.23
2017-10-24T09:04:00.209Z,21.45
2017-10-24T09:06:41.087Z,21.87
2017-10-24T09:12:08.441Z,24.50
2017-10-24T09:14:34.441Z,23.12
2017-10-24T09:20:12.985Z,24.53
2017-10-24T09:22:38.961Z,23.48
2017-10-24T09:25:06.439Z,24.80
2017-10-24T09:27:33.169Z,25.30
2017-10-24T09:29:59.149Z,24.02
2017-10-24T09:32:36.112Z,25.37
2017-10-24T09:35:02.105Z,25.83
2017-10-24T09:37:29.237Z,27.30
2017-10-24T09:39:55.219Z,26.30
2017-10-24T09:42:21.203Z,27.30
2017-10-24T09:44:47.206Z,27.83
2017-10-24T09:47:13.944Z,28.77
2017-10-24T09:49:40.662Z,28.67
2017-10-24T09:52:06.642Z,29.37
2017-10-24T09:54:47.573Z,34.47
2017-10-24T09:57:14.317Z,34.50
2017-10-24T09:59:41.050Z,31.30
2017-10-24T10:02:07.770Z,31.08
2017-10-24T10:04:34.305Z,33.20
2017-10-24T10:07:00.269Z,30.42
2017-10-24T10:09:26.236Z,31.77
2017-10-24T10:11:52.242Z,31.00
2017-10-24T10:14:18.213Z,33.10
2017-10-24T10:16:44.946Z,32.55
2017-10-24T10:19:11.705Z,33.10
2017-10-24T10:21:37.677Z,31.55
2017-10-24T10:24:03.645Z,31.35
2017-10-24T10:26:29.639Z,32.78
2017-10-24T10:28:56.357Z,32.40
2017-10-24T10:31:22.342Z,32.30
2017-10-24T10:33:48.316Z,34.50
2017-10-24T10:36:15.021Z,33.40
2017-10-24T10:38:41.009Z,33.55
2017-10-24T10:41:06.974Z,33.25
2017-10-24T10:43:32.998Z,36.50
2017-10-24T10:45:59.248Z,37.17
2017-10-24T10:48:25.967Z,38.58
2017-10-24T10:50:51.926Z,37.20
2017-10-24T10:53:17.949Z,36.45
2017-10-24T10:55:43.929Z,37.30
2017-10-24T10:58:09.927Z,38.88
2017-10-24T11:00:35.918Z,40.83
2017-10-24T11:03:01.883Z,40.60
2017-10-24T11:05:27.845Z,40.70
2017-10-24T11:07:53.858Z,40.72
2017-10-24T11:10:19.819Z,38.63
2017-10-24T11:12:45.777Z,38.22
2017-10-24T11:15:11.813Z,34.63
2017-10-24T11:17:38.529Z,36.60
2017-10-24T11:20:04.486Z,35.77
2017-10-24T11:22:31.875Z,33.92
2017-10-24T11:24:57.854Z,34.97
2017-10-24T11:27:23.810Z,33.80
2017-10-24T11:29:49.969Z,35.95
2017-10-24T11:32:15.931Z,34.38
2017-10-24T11:34:41.893Z,35.05
2017-10-24T11:37:07.849Z,33.92
2017-10-24T11:39:34.574Z,34.88
2017-10-24T11:42:01.341Z,31.20
2017-10-24T11:44:27.297Z,32.30
2017-10-24T11:46:53.286Z,31.75
2017-10-24T11:49:19.290Z,32.65
2017-10-24T11:51:45.989Z,31.40
2017-10-24T11:54:11.959Z,31.08
2017-10-24T11:56:37.949Z,32.40
2017-10-24T11:59:04.721Z,31.23
2017-10-24T12:01:30.729Z,30.37
2017-10-24T12:03:57.449Z,29.90
2017-10-24T12:06:23.450Z,29.45
2017-10-24T12:08:49.421Z,29.27
2017-10-24T12:11:15.578Z,28.40
2017-10-24T12:13:41.545Z,28.17
2017-10-24T12:16:08.250Z,28.87
2017-10-24T12:18:34.229Z,28.12
2017-10-24T12:21:00.213Z,27.05
2017-10-24T12:23:27.780Z,26.95
2017-10-24T12:25:54.503Z,27.70
2017-10-24T12:28:21.209Z,26.23
2017-10-24T12:30:48.084Z,26.37
2017-10-24T12:33:14.806Z,26.03
2017-10-24T12:35:40.770Z,25.98
2017-10-24T12:38:06.878Z,25.10
2017-10-24T12:40:33.612Z,24.30
2017-10-24T12:43:00.337Z,26.05
2017-10-24T12:45:26.310Z,23.80
2017-10-24T12:47:52.596Z,21.60
2017-10-24T12:50:22.323Z,22.40
2017-10-24T12:52:48.306Z,20.62
2017-10-24T12:55:14.330Z,20.70
2017-10-24T12:57:41.273Z,20.15
2017-10-24T13:00:08.014Z,19.60
2017-10-24T13:02:34.272Z,19.77
2017-10-24T13:05:00.281Z,66.82
2017-10-24T13:07:27.009Z,34.90
2017-10-24T13:09:53.721Z,30.07
2017-10-24T13:12:20.582Z,34.83
2017-10-24T13:14:47.320Z,21.00
2017-10-24T13:17:14.042Z,20.10
2017-10-24T13:19:40.042Z,19.48
2017-10-24T13:22:06.014Z,20.23
2017-10-24T13:24:31.981Z,19.02
2017-10-24T13:26:57.970Z,18.75
2017-10-24T13:29:23.926Z,19.62
2017-10-24T13:31:49.901Z,18.42
2017-10-24T13:34:15.902Z,19.50
2017-10-24T13:36:42.610Z,18.90
2017-10-24T13:39:08.565Z,19.37
2017-10-24T13:41:35.311Z,17.85
2017-10-24T13:44:02.050Z,18.10
2017-10-24T13:46:28.030Z,19.75
2017-10-24T13:48:54.005Z,19.65
2017-10-24T13:51:19.961Z,19.65
2017-10-24T13:53:45.929Z,18.92
2017-10-24T13:56:12.626Z,19.62
2017-10-24T13:58:38.589Z,19.85
2017-10-24T14:01:04.597Z,20.10
2017-10-24T14:03:31.315Z,20.85
2017-10-24T14:06:03.497Z,20.25
2017-10-24T14:08:36.512Z,18.23
2017-10-24T14:11:02.484Z,19.23
2017-10-24T14:13:28.498Z,18.45
2017-10-24T14:15:54.754Z,18.40
2017-10-24T14:18:21.454Z,18.95
2017-10-24T14:20:47.421Z,18.40
2017-10-24T14:23:13.397Z,19.37
2017-10-24T14:25:39.352Z,18.85
2017-10-24T14:28:06.099Z,18.48
2017-10-24T14:30:32.074Z,19.60
2017-10-24T14:32:58.050Z,20.95
2017-10-24T14:35:24.303Z,18.00
2017-10-24T14:37:50.291Z,19.00
2017-10-24T14:40:16.253Z,19.98
2017-10-24T14:42:42.262Z,19.27
2017-10-24T14:45:08.240Z,19.67
2017-10-24T14:47:34.957Z,20.90
2017-10-24T14:50:01.223Z,20.48
2017-10-24T14:52:27.177Z,21.90
2017-10-24T14:54:53.173Z,22.13
2017-10-24T14:57:19.178Z,22.13
2017-10-24T14:59:45.161Z,21.92
2017-10-24T15:02:12.077Z,22.60
2017-10-24T15:04:38.047Z,22.80
2017-10-24T15:07:04.785Z,21.93
2017-10-24T15:09:31.510Z,22.02
2017-10-24T15:11:57.469Z,21.17
2017-10-24T15:14:23.764Z,21.30
2017-10-24T15:16:50.461Z,21.10
2017-10-24T15:19:16.764Z,20.98
2017-10-24T15:21:42.738Z,22.20
2017-10-24T15:24:08.729Z,21.92
2017-10-24T15:26:34.694Z,22.70
2017-10-24T15:29:01.413Z,22.25
2017-10-24T15:31:27.367Z,37.83
2017-10-24T15:33:53.344Z,29.67
2017-10-24T15:36:19.330Z,53.17
2017-10-24T15:38:45.293Z,32.78
2017-10-24T15:41:11.263Z,30.90
2017-10-24T15:43:37.231Z,24.08
2017-10-24T15:46:03.199Z,23.50
2017-10-24T15:48:29.462Z,23.60
2017-10-24T15:50:55.453Z,24.65
2017-10-24T15:53:21.432Z,24.08
2017-10-24T15:55:48.433Z,24.20
2017-10-24T15:58:14.413Z,24.97
2017-10-24T16:00:41.134Z,24.55
2017-10-24T16:03:08.178Z,25.92
2017-10-24T16:05:34.143Z,25.00
2017-10-24T16:08:00.103Z,25.92
2017-10-24T16:10:26.134Z,25.83
2017-10-24T16:12:52.089Z,24.97
2017-10-24T16:15:18.061Z,25.15
2017-10-24T16:17:44.074Z,26.13
2017-10-24T16:20:10.050Z,27.10
2017-10-24T16:22:36.006Z,24.80
2017-10-24T16:25:01.977Z,25.15
2017-10-24T16:27:28.674Z,24.90
2017-10-24T16:29:54.661Z,24.40
2017-10-24T16:32:20.623Z,24.87
2017-10-24T16:34:46.588Z,24.65
2017-10-24T16:37:12.550Z,24.63
2017-10-24T16:39:38.532Z,23.92
2017-10-24T16:42:04.485Z,23.95
2017-10-24T16:44:30.480Z,23.70
2017-10-24T16:46:56.661Z,24.83
2017-10-24T16:49:22.613Z,24.25
2017-10-24T16:51:48.570Z,24.10
2017-10-24T16:54:14.571Z,25.37
2017-10-24T16:56:40.529Z,24.85
2017-10-24T16:59:06.502Z,24.30
2017-10-24T17:01:39.441Z,24.17
2017-10-24T17:04:05.422Z,23.62
2017-10-24T17:06:31.390Z,23.00
2017-10-24T17:08:57.740Z,22.20
2017-10-24T17:11:23.725Z,23.02
2017-10-24T17:13:49.691Z,22.83
2017-10-24T17:16:15.674Z,24.08
2017-10-24T17:18:41.648Z,23.25
2017-10-24T17:21:07.638Z,25.00
2017-10-24T17:23:34.357Z,23.73
2017-10-24T17:26:01.084Z,24.50
2017-10-24T17:28:27.049Z,24.37
2017-10-24T17:30:53.250Z,23.90
2017-10-24T17:33:19.948Z,26.30
2017-10-24T17:35:45.938Z,24.77
2017-10-24T17:38:11.930Z,24.73
2017-10-24T17:40:38.645Z,26.12
2017-10-24T17:43:04.633Z,25.10
2017-10-24T17:45:30.653Z,26.40
2017-10-24T17:47:56.620Z,25.33
2017-10-24T17:50:23.354Z,25.58
2017-10-24T17:52:50.401Z,25.62
2017-10-24T17:55:17.111Z,27.37
2017-10-24T17:57:43.079Z,25.67
2017-10-24T18:00:09.390Z,24.17
2017-10-24T18:02:36.101Z,26.70
2017-10-24T18:05:02.098Z,27.52
2017-10-24T18:07:28.101Z,26.35
2017-10-24T18:09:54.066Z,27.33
2017-10-24T18:12:20.037Z,27.67
2017-10-24T18:14:46.489Z,26.97
2017-10-24T18:17:12.456Z,25.77
2017-10-24T18:19:39.167Z,27.00
2017-10-24T18:22:05.422Z,26.40
2017-10-24T18:24:32.182Z,27.50
2017-10-24T18:26:58.147Z,25.10
2017-10-24T18:29:24.410Z,27.48
2017-10-24T18:31:51.105Z,27.92
2017-10-24T18:34:17.154Z,26.10
2017-10-24T18:36:43.154Z,26.33
2017-10-24T18:39:09.160Z,26.62
2017-10-24T18:41:35.135Z,26.77
2017-10-24T18:44:01.306Z,26.60
2017-10-24T18:46:27.282Z,25.98
2017-10-24T18:48:53.998Z,25.88
2017-10-24T18:51:20.161Z,27.63
2017-10-24T18:53:46.157Z,26.23
2017-10-24T18:56:12.869Z,27.40
2017-10-24T18:58:38.894Z,27.55
2017-10-24T19:01:04.861Z,29.20
2017-10-24T19:03:30.861Z,27.98
2017-10-24T19:05:58.104Z,27.57
2017-10-24T19:08:24.841Z,28.40
2017-10-24T19:10:51.578Z,29.60
2017-10-24T19:13:18.790Z,28.30
2017-10-24T19:15:52.336Z,27.77
2017-10-24T19:18:19.045Z,29.97
2017-10-24T19:20:45.022Z,28.50
2017-10-24T19:23:11.012Z,27.55
2017-10-24T19:25:37.712Z,24.50
2017-10-24T19:28:04.536Z,23.23
2017-10-24T19:30:30.513Z,21.30
2017-10-24T19:32:57.252Z,21.90
2017-10-24T19:35:23.992Z,21.20
2017-10-24T19:37:50.723Z,20.50
2017-10-24T19:40:17.446Z,20.67
2017-10-24T19:42:43.477Z,19.98
2017-10-24T19:45:10.213Z,20.13
2017-10-24T19:47:36.921Z,20.10
2017-10-24T19:50:02.901Z,22.02
2017-10-24T19:52:28.857Z,22.33
2017-10-24T19:54:54.866Z,22.60
2017-10-24T19:57:20.830Z,22.10
2017-10-24T19:59:47.545Z,22.60
2017-10-24T20:02:20.620Z,23.45
2017-10-24T20:04:46.603Z,24.10
2017-10-24T20:07:12.563Z,31.60
2017-10-24T20:09:38.643Z,30.08
2017-10-24T20:12:04.629Z,41.37
2017-10-24T20:14:30.613Z,27.85
2017-10-24T20:16:56.580Z,27.77
2017-10-24T20:19:23.287Z,25.98
2017-10-24T20:21:49.432Z,24.80
2017-10-24T20:24:15.409Z,26.77
2017-10-24T20:26:41.509Z,27.87
2017-10-24T20:29:07.497Z,27.20
2017-10-24T20:31:33.487Z,27.03
2017-10-24T20:33:59.494Z,28.05
2017-10-24T20:36:25.449Z,28.40
2017-10-24T20:38:51.453Z,27.77
2017-10-24T20:41:18.166Z,26.50
2017-10-24T20:43:44.130Z,26.20
2017-10-24T20:46:10.530Z,28.40
2017-10-24T20:48:36.519Z,29.00
2017-10-24T20:51:02.483Z,28.30
2017-10-24T20:53:28.498Z,28.08
2017-10-24T20:55:54.506Z,29.98
2017-10-24T20:58:20.491Z,39.75
2017-10-24T21:00:47.207Z,39.80
2017-10-24T21:03:13.200Z,50.15
2017-10-24T21:05:39.309Z,28.90
2017-10-24T21:08:05.274Z,30.80
2017-10-24T21:10:31.238Z,29.05
2017-10-24T21:12:57.626Z,29.00
2017-10-24T21:15:24.525Z,29.70
2017-10-24T21:17:50.514Z,29.00
2017-10-24T21:20:16.526Z,28.62
2017-10-24T21:22:42.490Z,27.93
2017-10-24T21:25:08.485Z,27.77
2017-10-24T21:27:34.589Z,27.03
2017-10-24T21:30:00.702Z,27.27
2017-10-24T21:32:27.609Z,26.25
2017-10-24T21:34:53.595Z,26.80
2017-10-24T21:37:19.569Z,26.92
2017-10-24T21:39:45.576Z,25.55
2017-10-24T21:42:11.606Z,27.25
2017-10-24T21:44:37.607Z,27.27
2017-10-24T21:47:03.601Z,26.92
2017-10-24T21:49:29.663Z,26.08
2017-10-24T21:51:55.653Z,25.00
2017-10-24T21:54:21.605Z,24.58
2017-10-24T21:56:47.731Z,23.87
2017-10-24T21:59:13.697Z,24.70
2017-10-24T22:01:39.677Z,24.73
2017-10-24T22:04:05.693Z,24.30
2017-10-24T22:06:31.666Z,23.38
2017-10-24T22:09:04.738Z,24.73
2017-10-24T22:11:30.730Z,24.12
2017-10-24T22:13:56.697Z,23.67
2017-10-24T22:16:22.699Z,24.77
2017-10-24T22:18:48.682Z,23.87
2017-10-24T22:21:14.654Z,23.27
2017-10-24T22:23:40.633Z,23.30
2017-10-24T22:26:06.619Z,23.05
2017-10-24T22:28:32.601Z,22.08
2017-10-24T22:30:58.565Z,23.33
2017-10-24T22:33:24.540Z,22.73
2017-10-24T22:35:50.591Z,23.45
2017-10-24T22:38:16.561Z,22.55
2017-10-24T22:40:43.303Z,24.85
2017-10-24T22:43:10.010Z,24.25
2017-10-24T22:45:36.265Z,25.23
2017-10-24T22:48:03.008Z,25.10
2017-10-24T22:50:29.704Z,25.30
2017-10-24T22:52:55.711Z,26.80
2017-10-24T22:55:21.691Z,24.85
2017-10-24T22:57:48.445Z,24.45
2017-10-24T23:00:21.323Z,25.98
2017-10-24T23:02:47.282Z,25.67
2017-10-24T23:05:13.373Z,26.25
2017-10-24T23:07:39.345Z,26.15
2017-10-24T23:10:05.343Z,25.20
2017-10-24T23:12:31.322Z,26.62
2017-10-24T23:14:57.305Z,26.92
2017-10-24T23:17:30.264Z,27.58
2017-10-24T23:19:56.258Z,27.25
2017-10-24T23:22:22.244Z,28.20
2017-10-24T23:24:48.289Z,29.23
2017-10-24T23:27:15.005Z,29.25
2017-10-24T23:29:40.966Z,28.67
2017-10-24T23:32:06.937Z,28.20
2017-10-24T23:34:33.206Z,29.70
2017-10-24T23:36:59.171Z,29.17
2017-10-24T23:39:25.128Z,29.90
2017-10-24T23:41:51.852Z,28.65
2017-10-24T23:44:18.541Z,28.87
2017-10-24T23:46:44.529Z,30.90
2017-10-24T23:49:10.543Z,28.02
2017-10-24T23:51:37.260Z,28.38
2017-10-24T23:54:03.233Z,30.12
2017-10-24T23:56:29.241Z,31.40
2017-10-24T23:58:55.243Z,30.23
